Portada
METAR-TAF:

METAR-TAF

Aeroports :

Rolla National Airport

Rolla, Missouri, Estats Units d'Amèrica

latitud: 38-07-55N, longitud: 091-45-55W, altitud: 350 m

Observació

L'informe es va fer fa 38 minuts, a les 20:53 UTC
Vent 4 kt amb direcció variable
Temperatura 6°C
Humitat 56%
Pressió 1019 hPa
Visibilitat: 16.1 km
Cel clar

METAR: KVIH 222053Z AUTO VRB04KT 10SM CLR 06/M02 A3009 RMK AO2 SLP196 T00561017 55017

Hora: 15:31 (21:31 UTC)


TAF: manca

Observacions i pronòstics meteorològics de més de 4000 aeroports (METAR i TAF).

Les estacions disponibles són els punts grocs i vermells al mapa.

Posi el ratolí al punt desitjat per veure el nom de l'estació.

Feu clic per veure les observacions i els pronòstics meteorològics.

Per canviar el mapa: feu clic els botons verds amb una creu de color negre per apropar; al botó verd amb un guió per allunyar la imatge; o en les fletxes verdes per a mapes adjacents.


METAR-TAF: